createdAt,value
2017-11-09T00:00:42.816Z,8.20
2017-11-09T00:03:10.392Z,8.10
2017-11-09T00:05:43.649Z,8.20
2017-11-09T00:08:12.129Z,8.20
2017-11-09T00:10:39.629Z,8.20
2017-11-09T00:13:07.129Z,8.20
2017-11-09T00:15:34.865Z,8.20
2017-11-09T00:18:02.423Z,8.20
2017-11-09T00:20:30.076Z,8.20
2017-11-09T00:22:57.782Z,8.30
2017-11-09T00:25:25.311Z,8.30
2017-11-09T00:27:52.846Z,8.30
2017-11-09T00:30:20.531Z,8.20
2017-11-09T00:32:48.297Z,8.20
2017-11-09T00:35:15.793Z,8.10
2017-11-09T00:37:43.305Z,8.10
2017-11-09T00:40:10.834Z,8.20
2017-11-09T00:42:38.348Z,8.10
2017-11-09T00:45:05.917Z,8.20
2017-11-09T00:47:33.421Z,8.20
2017-11-09T00:50:00.969Z,8.20
2017-11-09T00:52:28.601Z,8.20
2017-11-09T00:54:56.325Z,8.20
2017-11-09T00:57:23.834Z,8.20
2017-11-09T00:59:51.364Z,8.20
2017-11-09T01:02:18.870Z,8.10
2017-11-09T01:04:46.385Z,8.20
2017-11-09T01:07:13.922Z,8.20
2017-11-09T01:09:41.441Z,8.10
2017-11-09T01:12:09.146Z,8.10
2017-11-09T01:14:36.906Z,8.10
2017-11-09T01:17:04.653Z,8.10
2017-11-09T01:19:32.188Z,8.20
2017-11-09T01:21:59.728Z,8.10
2017-11-09T01:24:28.250Z,8.20
2017-11-09T01:26:55.784Z,8.10
2017-11-09T01:29:23.283Z,8.20
2017-11-09T01:31:50.825Z,8.20
2017-11-09T01:34:18.362Z,8.20
2017-11-09T01:36:45.872Z,8.10
2017-11-09T01:39:13.602Z,8.10
2017-11-09T01:41:41.101Z,8.10
2017-11-09T01:44:08.829Z,8.10
2017-11-09T01:46:36.330Z,8.10
2017-11-09T01:49:03.857Z,8.00
2017-11-09T01:51:31.372Z,8.00
2017-11-09T01:53:58.941Z,8.00
2017-11-09T01:56:26.897Z,8.10
2017-11-09T01:58:54.385Z,8.10
2017-11-09T02:01:21.901Z,8.10
2017-11-09T02:03:49.420Z,8.10
2017-11-09T02:06:16.928Z,8.10
2017-11-09T02:08:44.425Z,8.10
2017-11-09T02:11:11.939Z,8.20
2017-11-09T02:13:39.444Z,8.10
2017-11-09T02:16:06.996Z,8.10
2017-11-09T02:18:34.684Z,8.10
2017-11-09T02:21:02.192Z,8.10
2017-11-09T02:23:29.688Z,8.10
2017-11-09T02:25:57.202Z,8.10
2017-11-09T02:28:24.754Z,8.10
2017-11-09T02:30:52.513Z,8.10
2017-11-09T02:33:20.101Z,8.10
2017-11-09T02:35:47.635Z,8.10
2017-11-09T02:38:15.295Z,8.10
2017-11-09T02:40:42.795Z,8.10
2017-11-09T02:43:10.574Z,8.10
2017-11-09T02:45:38.102Z,8.10
2017-11-09T02:48:05.645Z,8.10
2017-11-09T02:50:33.222Z,8.10
2017-11-09T02:53:00.766Z,8.10
2017-11-09T02:55:28.261Z,8.10
2017-11-09T02:57:55.858Z,8.10
2017-11-09T03:00:23.362Z,8.10
2017-11-09T03:02:50.883Z,8.10
2017-11-09T03:05:18.573Z,8.10
2017-11-09T03:07:46.328Z,8.10
2017-11-09T03:10:14.125Z,8.10
2017-11-09T03:12:41.835Z,8.00
2017-11-09T03:15:09.347Z,8.10
2017-11-09T03:17:36.877Z,8.10
2017-11-09T03:20:04.370Z,8.10
2017-11-09T03:22:32.989Z,8.10
2017-11-09T03:25:00.866Z,8.10
2017-11-09T03:27:28.381Z,8.10
2017-11-09T03:29:55.930Z,8.00
2017-11-09T03:32:23.669Z,8.00
2017-11-09T03:34:51.169Z,8.00
2017-11-09T03:37:19.818Z,8.00
2017-11-09T03:39:47.330Z,8.10
2017-11-09T03:42:14.839Z,8.10
2017-11-09T03:44:42.353Z,8.10
2017-11-09T03:47:09.860Z,8.20
2017-11-09T03:49:37.380Z,8.20
2017-11-09T03:52:04.910Z,8.20
2017-11-09T03:54:32.437Z,8.20
2017-11-09T03:56:59.961Z,8.10
2017-11-09T03:59:27.521Z,8.10
2017-11-09T04:01:55.025Z,8.10
2017-11-09T04:04:22.745Z,8.10
2017-11-09T04:06:50.461Z,8.10
2017-11-09T04:09:17.975Z,8.10
2017-11-09T04:11:45.496Z,8.10
2017-11-09T04:14:13.092Z,8.10
2017-11-09T04:16:40.589Z,8.00
2017-11-09T04:19:08.099Z,8.00
2017-11-09T04:21:35.628Z,8.10
2017-11-09T04:24:03.292Z,8.10
2017-11-09T04:26:31.098Z,8.10
2017-11-09T04:29:00.104Z,8.10
2017-11-09T04:31:28.767Z,8.10
2017-11-09T04:33:56.300Z,8.10
2017-11-09T04:36:23.851Z,8.00
2017-11-09T04:38:51.432Z,8.00
2017-11-09T04:41:18.981Z,8.00
2017-11-09T04:43:46.649Z,8.00
2017-11-09T04:46:14.183Z,8.00
2017-11-09T04:48:41.710Z,8.00
2017-11-09T04:51:09.993Z,8.10
2017-11-09T04:53:37.526Z,8.10
2017-11-09T04:56:05.188Z,8.10
2017-11-09T04:58:32.934Z,8.00
2017-11-09T05:01:00.476Z,8.00
2017-11-09T05:03:28.039Z,8.00
2017-11-09T05:05:55.579Z,8.00
2017-11-09T05:08:23.120Z,7.90
2017-11-09T05:10:50.636Z,7.90
2017-11-09T05:13:18.153Z,7.90
2017-11-09T05:15:45.745Z,7.90
2017-11-09T05:18:13.290Z,7.90
2017-11-09T05:20:40.796Z,8.00
2017-11-09T05:23:09.080Z,8.00
2017-11-09T05:25:36.629Z,8.00
2017-11-09T05:28:05.191Z,7.90
2017-11-09T05:30:32.748Z,7.90
2017-11-09T05:33:00.393Z,7.90
2017-11-09T05:35:27.893Z,7.90
2017-11-09T05:37:55.525Z,8.00
2017-11-09T05:40:23.950Z,7.90
2017-11-09T05:42:51.757Z,7.90
2017-11-09T05:45:19.552Z,7.90
2017-11-09T05:47:47.065Z,7.90
2017-11-09T05:50:14.609Z,7.90
2017-11-09T05:52:42.100Z,7.80
2017-11-09T05:55:09.611Z,7.90
2017-11-09T05:57:37.136Z,7.90
2017-11-09T06:00:04.846Z,8.00
2017-11-09T06:02:32.360Z,8.00
2017-11-09T06:04:59.867Z,8.10
2017-11-09T06:07:27.397Z,8.10
2017-11-09T06:09:54.970Z,8.10
2017-11-09T06:12:22.509Z,8.10
2017-11-09T06:14:50.017Z,8.10
2017-11-09T06:17:17.545Z,8.10
2017-11-09T06:19:45.069Z,8.10
2017-11-09T06:22:13.537Z,8.10
2017-11-09T06:24:41.027Z,8.00
2017-11-09T06:27:08.746Z,8.10
2017-11-09T06:29:36.266Z,8.10
2017-11-09T06:32:03.971Z,8.20
2017-11-09T06:34:31.714Z,8.10
2017-11-09T06:36:59.234Z,8.00
2017-11-09T06:39:27.626Z,8.00
2017-11-09T06:41:55.354Z,8.00
2017-11-09T06:44:22.870Z,8.00
2017-11-09T06:46:50.495Z,8.00
2017-11-09T06:49:18.005Z,8.00
2017-11-09T06:51:45.549Z,8.10
2017-11-09T06:54:13.065Z,8.20
2017-11-09T06:56:40.582Z,8.10
2017-11-09T06:59:08.103Z,8.30
2017-11-09T07:01:35.592Z,8.10
2017-11-09T07:04:03.114Z,8.10
2017-11-09T07:06:30.623Z,8.10
2017-11-09T07:08:58.150Z,8.20
2017-11-09T07:11:25.714Z,8.20
2017-11-09T07:13:53.280Z,8.20
2017-11-09T07:16:20.778Z,8.20
2017-11-09T07:18:49.084Z,8.10
2017-11-09T07:21:16.765Z,8.10
2017-11-09T07:23:44.617Z,8.10
2017-11-09T07:26:12.127Z,8.20
2017-11-09T07:28:40.405Z,8.20
2017-11-09T07:31:07.930Z,8.20
2017-11-09T07:33:36.045Z,8.20
2017-11-09T07:36:04.552Z,8.10
2017-11-09T07:38:32.053Z,8.10
2017-11-09T07:40:59.582Z,8.20
2017-11-09T07:43:27.146Z,8.20
2017-11-09T07:45:54.730Z,8.20
2017-11-09T07:48:22.244Z,8.30
2017-11-09T07:50:49.925Z,8.30
2017-11-09T07:53:17.429Z,8.30
2017-11-09T07:55:45.130Z,8.30
2017-11-09T07:58:12.687Z,8.40
2017-11-09T08:00:40.383Z,8.40
2017-11-09T08:03:07.882Z,8.40
2017-11-09T08:05:35.570Z,8.30
2017-11-09T08:08:03.389Z,8.20
2017-11-09T08:10:31.740Z,8.20
2017-11-09T08:12:59.263Z,8.10
2017-11-09T08:15:26.770Z,8.00
2017-11-09T08:17:54.406Z,8.00
2017-11-09T08:20:21.973Z,7.90
2017-11-09T08:22:49.635Z,7.90
2017-11-09T08:25:18.002Z,7.80
2017-11-09T08:27:46.481Z,7.80
2017-11-09T08:30:16.632Z,7.90
2017-11-09T08:32:44.746Z,8.00
2017-11-09T08:35:12.449Z,7.90
2017-11-09T08:37:39.940Z,7.90
2017-11-09T08:40:07.445Z,8.00
2017-11-09T08:42:34.965Z,7.80
2017-11-09T08:45:03.298Z,7.90
2017-11-09T08:47:30.829Z,7.90
2017-11-09T08:49:58.336Z,7.90
2017-11-09T08:52:25.857Z,7.80
2017-11-09T08:54:53.696Z,7.80
2017-11-09T08:57:21.218Z,7.70
2017-11-09T08:59:49.485Z,8.00
2017-11-09T09:02:17.015Z,8.00
2017-11-09T09:04:44.660Z,7.90
2017-11-09T09:07:12.566Z,7.90
2017-11-09T09:09:40.534Z,8.00
2017-11-09T09:12:08.150Z,7.90
2017-11-09T09:14:36.186Z,8.00
2017-11-09T09:17:04.478Z,8.00
2017-11-09T09:19:31.988Z,8.00
2017-11-09T09:22:14.381Z,8.10
2017-11-09T09:24:42.697Z,8.20
2017-11-09T09:27:12.806Z,8.30
2017-11-09T09:29:46.287Z,8.10
2017-11-09T09:32:13.785Z,8.20
2017-11-09T09:35:00.519Z,8.20
2017-11-09T09:37:34.282Z,8.20
2017-11-09T09:40:02.995Z,8.30
2017-11-09T09:42:30.570Z,8.40
2017-11-09T09:44:58.085Z,8.50
2017-11-09T09:47:25.613Z,8.30
2017-11-09T09:49:53.237Z,8.20
2017-11-09T09:52:20.738Z,8.20
2017-11-09T09:54:48.246Z,8.10
2017-11-09T09:57:15.740Z,8.20
2017-11-09T09:59:43.257Z,8.40
2017-11-09T10:02:10.769Z,8.40
2017-11-09T10:04:38.289Z,8.50
2017-11-09T10:07:05.793Z,8.40
2017-11-09T10:09:33.326Z,8.50
2017-11-09T10:12:00.820Z,8.40
2017-11-09T10:14:29.108Z,8.40
2017-11-09T10:16:56.630Z,8.30
2017-11-09T10:19:24.146Z,8.30
2017-11-09T10:21:51.739Z,8.30
2017-11-09T10:24:19.506Z,8.30
2017-11-09T10:26:46.997Z,8.50
2017-11-09T10:29:15.025Z,8.50
2017-11-09T10:31:43.290Z,8.40
2017-11-09T10:34:11.019Z,8.40
2017-11-09T10:36:39.286Z,8.60
2017-11-09T10:39:06.987Z,8.60
2017-11-09T10:41:34.563Z,8.60
2017-11-09T10:44:02.226Z,8.50
2017-11-09T10:46:29.730Z,8.60
2017-11-09T10:48:57.243Z,8.70
2017-11-09T10:51:24.918Z,8.80
2017-11-09T10:53:52.634Z,8.80
2017-11-09T10:56:20.136Z,8.80
2017-11-09T10:58:47.652Z,8.80
2017-11-09T11:01:15.161Z,8.90
2017-11-09T11:03:42.715Z,8.90
2017-11-09T11:06:10.985Z,9.00
2017-11-09T11:08:38.552Z,9.00
2017-11-09T11:11:06.824Z,8.90
2017-11-09T11:13:34.469Z,8.80
2017-11-09T11:16:02.209Z,8.80
2017-11-09T11:18:29.937Z,8.80
2017-11-09T11:20:57.445Z,8.80
2017-11-09T11:23:25.212Z,8.80
2017-11-09T11:25:53.360Z,8.80
2017-11-09T11:28:20.906Z,8.80
2017-11-09T11:30:48.400Z,8.80
2017-11-09T11:33:15.930Z,8.80
2017-11-09T11:35:43.453Z,8.90
2017-11-09T11:38:10.973Z,9.00
2017-11-09T11:40:38.609Z,8.90
2017-11-09T11:43:06.128Z,9.00
2017-11-09T11:45:33.700Z,9.00
2017-11-09T11:48:01.989Z,9.00
2017-11-09T11:50:29.690Z,9.00
2017-11-09T11:52:57.282Z,8.90
2017-11-09T11:55:24.921Z,8.90
2017-11-09T11:57:53.948Z,8.90
2017-11-09T12:00:21.527Z,8.80
2017-11-09T12:02:49.218Z,8.90
2017-11-09T12:05:16.721Z,8.80
2017-11-09T12:07:45.007Z,9.00
2017-11-09T12:10:12.685Z,9.00
2017-11-09T12:12:40.209Z,9.10
2017-11-09T12:15:07.956Z,9.10
2017-11-09T12:17:36.467Z,9.30
2017-11-09T12:20:04.753Z,9.30
2017-11-09T12:22:33.132Z,9.30
2017-11-09T12:25:00.673Z,9.30
2017-11-09T12:27:28.985Z,9.20
2017-11-09T12:29:56.476Z,9.20
2017-11-09T12:32:24.001Z,9.10
2017-11-09T12:34:51.549Z,9.20
2017-11-09T12:37:19.078Z,9.20
2017-11-09T12:39:47.497Z,9.10
2017-11-09T12:42:15.180Z,9.10
2017-11-09T12:44:42.717Z,9.10
2017-11-09T12:47:10.233Z,9.10
2017-11-09T12:49:38.505Z,9.10
2017-11-09T12:52:06.883Z,9.10
2017-11-09T12:54:34.453Z,9.10
2017-11-09T12:57:02.995Z,9.10
2017-11-09T12:59:30.497Z,9.10
2017-11-09T13:01:58.006Z,9.10
2017-11-09T13:04:25.521Z,9.10
2017-11-09T13:06:53.081Z,9.00
2017-11-09T13:09:20.659Z,9.00
2017-11-09T13:11:48.182Z,8.90
2017-11-09T13:14:16.461Z,9.00
2017-11-09T13:16:43.971Z,9.00
2017-11-09T13:19:11.477Z,9.00
2017-11-09T13:21:40.019Z,9.10
2017-11-09T13:24:07.527Z,9.10
2017-11-09T13:26:35.197Z,9.10
2017-11-09T13:29:03.029Z,9.20
2017-11-09T13:31:30.528Z,9.10
2017-11-09T13:33:58.043Z,9.00
2017-11-09T13:36:25.691Z,9.10
2017-11-09T13:38:53.437Z,9.10
2017-11-09T13:41:20.941Z,9.10
2017-11-09T13:43:48.653Z,9.10
2017-11-09T13:46:16.162Z,9.00
2017-11-09T13:48:43.879Z,9.10
2017-11-09T13:51:11.411Z,9.00
2017-11-09T13:53:38.965Z,9.10
2017-11-09T13:56:06.462Z,9.10
2017-11-09T13:58:33.985Z,9.00
2017-11-09T14:01:01.493Z,9.10
2017-11-09T14:03:29.192Z,9.10
2017-11-09T14:05:56.704Z,9.10
2017-11-09T14:08:24.275Z,9.10
2017-11-09T14:10:51.776Z,9.10
2017-11-09T14:13:19.401Z,9.00
2017-11-09T14:15:47.083Z,9.00
2017-11-09T14:18:14.605Z,9.00
2017-11-09T14:20:42.111Z,8.90
2017-11-09T14:23:09.614Z,9.00
2017-11-09T14:25:37.234Z,9.00
2017-11-09T14:28:04.725Z,9.00
2017-11-09T14:30:33.782Z,9.00
2017-11-09T14:33:01.789Z,9.00
2017-11-09T14:35:29.297Z,9.00
2017-11-09T14:37:57.613Z,8.90
2017-11-09T14:40:25.249Z,8.90
2017-11-09T14:42:52.749Z,8.90
2017-11-09T14:45:20.269Z,8.80
2017-11-09T14:47:48.063Z,8.80
2017-11-09T14:50:15.620Z,8.80
2017-11-09T14:52:43.126Z,8.80
2017-11-09T14:55:11.389Z,8.80
2017-11-09T14:57:38.888Z,8.70
2017-11-09T15:00:06.565Z,8.80
2017-11-09T15:02:34.078Z,8.80
2017-11-09T15:05:02.401Z,8.90
2017-11-09T15:07:29.913Z,8.80
2017-11-09T15:09:57.494Z,8.80
2017-11-09T15:12:25.014Z,8.80
2017-11-09T15:14:52.526Z,8.80
2017-11-09T15:17:20.055Z,8.70
2017-11-09T15:19:47.557Z,8.70
2017-11-09T15:22:15.078Z,8.70
2017-11-09T15:24:46.412Z,8.70
2017-11-09T15:27:14.089Z,8.70
2017-11-09T15:29:41.598Z,8.70
2017-11-09T15:32:11.021Z,8.60
2017-11-09T15:34:39.285Z,8.60
2017-11-09T15:37:06.850Z,8.50
2017-11-09T15:39:35.384Z,8.50
2017-11-09T15:42:02.903Z,8.50
2017-11-09T15:44:31.077Z,8.50
2017-11-09T15:46:59.469Z,8.50
2017-11-09T15:49:27.504Z,8.40
2017-11-09T15:51:55.793Z,8.50
2017-11-09T15:54:23.297Z,8.50
2017-11-09T15:56:50.834Z,8.40
2017-11-09T15:59:18.337Z,8.40
2017-11-09T16:01:45.873Z,8.40
2017-11-09T16:04:13.387Z,8.40
2017-11-09T16:06:41.833Z,8.40
2017-11-09T16:09:09.341Z,8.40
2017-11-09T16:11:36.849Z,8.30
2017-11-09T16:14:04.399Z,8.30
2017-11-09T16:16:32.149Z,8.30
2017-11-09T16:19:00.601Z,8.30
2017-11-09T16:21:28.101Z,8.30
2017-11-09T16:23:55.628Z,8.30
2017-11-09T16:26:23.194Z,8.30
2017-11-09T16:28:50.709Z,8.30
2017-11-09T16:31:18.562Z,8.30
2017-11-09T16:33:46.896Z,8.30
2017-11-09T16:36:14.388Z,8.30
2017-11-09T16:38:41.905Z,8.30
2017-11-09T16:41:09.435Z,8.30
2017-11-09T16:43:36.990Z,8.30
2017-11-09T16:46:04.697Z,8.30
2017-11-09T16:48:32.214Z,8.30
2017-11-09T16:51:00.014Z,8.20
2017-11-09T16:53:27.670Z,8.30
2017-11-09T16:55:56.101Z,8.20
2017-11-09T16:58:23.622Z,8.20
2017-11-09T17:00:51.280Z,8.20
2017-11-09T17:03:18.781Z,8.20
2017-11-09T17:05:46.317Z,8.20
2017-11-09T17:08:13.929Z,8.20
2017-11-09T17:10:43.292Z,8.20
2017-11-09T17:13:11.029Z,8.30
2017-11-09T17:15:38.787Z,8.20
2017-11-09T17:18:11.988Z,8.10
2017-11-09T17:20:39.492Z,8.10
2017-11-09T17:23:07.006Z,8.10
2017-11-09T17:25:34.755Z,8.20
2017-11-09T17:28:02.518Z,8.20
2017-11-09T17:30:30.070Z,8.20
2017-11-09T17:32:57.571Z,8.20
2017-11-09T17:35:25.991Z,8.10
2017-11-09T17:37:53.498Z,8.00
2017-11-09T17:40:23.414Z,8.10
2017-11-09T17:42:50.928Z,8.00
2017-11-09T17:45:21.265Z,8.00
2017-11-09T17:47:48.945Z,7.90
2017-11-09T17:50:16.461Z,7.90
2017-11-09T17:52:44.148Z,7.90
2017-11-09T17:55:11.669Z,7.90
2017-11-09T17:57:39.346Z,7.90
2017-11-09T18:00:13.198Z,7.90
2017-11-09T18:02:40.706Z,7.90
2017-11-09T18:05:09.112Z,7.90
2017-11-09T18:07:36.875Z,7.90
2017-11-09T18:10:04.645Z,7.80
2017-11-09T18:12:32.137Z,7.90
2017-11-09T18:14:59.841Z,7.90
2017-11-09T18:17:27.360Z,7.90
2017-11-09T18:19:54.950Z,7.80
2017-11-09T18:22:22.551Z,7.80
2017-11-09T18:24:50.039Z,7.60
2017-11-09T18:27:17.766Z,7.60
2017-11-09T18:29:45.377Z,7.70
2017-11-09T18:32:12.884Z,7.70
2017-11-09T18:34:40.425Z,7.60
2017-11-09T18:37:08.000Z,7.60
2017-11-09T18:39:35.509Z,7.70
2017-11-09T18:42:03.108Z,7.50
2017-11-09T18:44:31.046Z,7.60
2017-11-09T18:46:58.616Z,7.50
2017-11-09T18:49:26.119Z,7.60
2017-11-09T18:51:53.638Z,7.60
2017-11-09T18:54:21.211Z,7.60
2017-11-09T18:56:48.773Z,7.60
2017-11-09T18:59:18.210Z,7.60
2017-11-09T19:01:46.495Z,7.60
2017-11-09T19:04:13.997Z,7.60
2017-11-09T19:06:41.499Z,7.60
2017-11-09T19:09:09.773Z,7.60
2017-11-09T19:11:37.493Z,7.60
2017-11-09T19:14:05.005Z,7.60
2017-11-09T19:16:32.514Z,7.60
2017-11-09T19:19:00.027Z,7.60
2017-11-09T19:21:27.628Z,7.70
2017-11-09T19:23:55.141Z,7.70
2017-11-09T19:26:22.850Z,7.70
2017-11-09T19:28:50.397Z,7.60
2017-11-09T19:31:18.065Z,7.60
2017-11-09T19:33:45.711Z,7.60
2017-11-09T19:36:13.262Z,7.60
2017-11-09T19:38:41.280Z,7.60
2017-11-09T19:41:08.785Z,7.70
2017-11-09T19:43:36.290Z,7.70
2017-11-09T19:46:04.694Z,7.70
2017-11-09T19:48:32.377Z,7.70
2017-11-09T19:50:59.881Z,7.70
2017-11-09T19:53:27.389Z,7.70
2017-11-09T19:55:54.916Z,7.60
2017-11-09T19:58:22.570Z,7.60
2017-11-09T20:00:50.089Z,7.60
2017-11-09T20:03:17.789Z,7.60
2017-11-09T20:05:45.305Z,7.50
2017-11-09T20:08:13.593Z,7.50
2017-11-09T20:10:41.102Z,7.60
2017-11-09T20:13:08.602Z,7.60
2017-11-09T20:15:36.125Z,7.50
2017-11-09T20:18:03.659Z,7.50
2017-11-09T20:20:31.180Z,7.60
2017-11-09T20:22:58.682Z,7.60
2017-11-09T20:25:26.196Z,7.50
2017-11-09T20:27:53.724Z,7.50
2017-11-09T20:30:21.883Z,7.60
2017-11-09T20:32:49.393Z,7.50
2017-11-09T20:35:16.934Z,7.50
2017-11-09T20:37:44.585Z,7.50
2017-11-09T20:40:12.092Z,7.50
2017-11-09T20:42:39.631Z,7.50
2017-11-09T20:45:07.130Z,7.50
2017-11-09T20:47:35.417Z,7.60
2017-11-09T20:50:02.917Z,7.60
2017-11-09T20:52:30.438Z,7.60
2017-11-09T20:54:57.936Z,7.60
2017-11-09T20:57:25.465Z,7.60
2017-11-09T20:59:53.256Z,7.60
2017-11-09T21:02:20.778Z,7.60
2017-11-09T21:04:48.280Z,7.60
2017-11-09T21:07:15.799Z,7.60
2017-11-09T21:09:43.358Z,7.70
2017-11-09T21:12:10.860Z,7.60
2017-11-09T21:14:38.481Z,7.70
2017-11-09T21:17:06.002Z,7.70
2017-11-09T21:19:33.501Z,7.60
2017-11-09T21:22:01.013Z,7.70
2017-11-09T21:24:28.526Z,7.60
2017-11-09T21:26:56.025Z,7.70
2017-11-09T21:29:24.581Z,7.70
2017-11-09T21:31:52.330Z,7.70
2017-11-09T21:34:19.856Z,7.80
2017-11-09T21:36:47.562Z,7.80
2017-11-09T21:39:15.069Z,7.80
2017-11-09T21:41:42.733Z,7.70
2017-11-09T21:44:10.992Z,7.80
2017-11-09T21:46:39.257Z,7.90
2017-11-09T21:49:06.773Z,7.90
2017-11-09T21:51:34.447Z,7.90
2017-11-09T21:54:01.959Z,7.90
2017-11-09T21:56:29.681Z,7.90
2017-11-09T21:58:57.208Z,7.90
2017-11-09T22:01:24.888Z,7.90
2017-11-09T22:03:52.417Z,7.90
2017-11-09T22:06:19.922Z,7.90
2017-11-09T22:08:47.570Z,7.90
2017-11-09T22:11:15.883Z,8.00
2017-11-09T22:13:43.513Z,8.00
2017-11-09T22:16:11.042Z,8.00
2017-11-09T22:18:38.630Z,8.10
2017-11-09T22:21:06.116Z,8.00
2017-11-09T22:23:33.826Z,8.00
2017-11-09T22:26:01.332Z,8.00
2017-11-09T22:28:29.982Z,8.00
2017-11-09T22:30:57.494Z,8.00
2017-11-09T22:33:24.993Z,8.10
2017-11-09T22:35:52.505Z,8.10
2017-11-09T22:38:20.110Z,8.10
2017-11-09T22:40:47.642Z,8.00
2017-11-09T22:43:15.147Z,8.00
2017-11-09T22:45:42.648Z,8.00
2017-11-09T22:48:11.164Z,8.00
2017-11-09T22:50:38.678Z,8.10
2017-11-09T22:53:06.689Z,8.10
2017-11-09T22:55:34.197Z,8.10
2017-11-09T22:58:01.694Z,8.10
2017-11-09T23:00:29.238Z,8.20
2017-11-09T23:02:56.829Z,8.20
2017-11-09T23:05:24.336Z,8.20
2017-11-09T23:07:51.842Z,8.30
2017-11-09T23:10:19.372Z,8.20
2017-11-09T23:12:46.930Z,8.30
2017-11-09T23:15:14.430Z,8.20
2017-11-09T23:17:41.936Z,8.20
2017-11-09T23:20:09.638Z,8.30
2017-11-09T23:22:37.397Z,8.30
2017-11-09T23:25:06.222Z,8.30
2017-11-09T23:27:34.495Z,8.30
2017-11-09T23:30:01.992Z,8.20
2017-11-09T23:32:29.564Z,8.30
2017-11-09T23:34:57.120Z,8.20
2017-11-09T23:37:24.905Z,8.30
2017-11-09T23:39:52.664Z,8.30
2017-11-09T23:42:20.166Z,8.30
2017-11-09T23:44:47.670Z,8.30
2017-11-09T23:47:15.338Z,8.30
2017-11-09T23:49:42.833Z,8.40
2017-11-09T23:52:10.334Z,8.40
2017-11-09T23:54:37.829Z,8.40
2017-11-09T23:57:05.454Z,8.40
2017-11-09T23:59:32.956Z,8.50
